Time;durP1;ratioP1;P1;durP2;ratioP2;P2;SDS_P1;SDS_P2;PMS_P1;PMS_P2;Temp;Humidity;BMP_temperature;BMP_pressure;BME280_temperature;BME280_humidity;BME280_pressure;Samples;Min_cycle;Max_cycle;Signal;HPM_P1;HPM_P2
2020/12/19 00:01:49;;;;;;;;;;;7.30;85.10;;;;;;5006477;28;19940;-45
2020/12/19 00:04:35;;;;;;;;;;;7.30;85.10;;;;;;5005895;28;20408;-44
2020/12/19 00:07:01;;;;;;;;;;;7.30;85.00;;;;;;5001528;28;21075;-44
2020/12/19 00:09:27;;;;;;;;;;;7.30;85.10;;;;;;5011923;28;19926;-44
2020/12/19 00:11:54;;;;;;;;;;;7.30;85.10;;;;;;5003440;28;20392;-44
2020/12/19 00:14:21;;;;;;;;;;;7.30;85.00;;;;;;5004524;28;19929;-43
2020/12/19 00:16:47;;;;;;;;;;;7.30;85.10;;;;;;5005424;28;19933;-42
2020/12/19 00:19:14;;;;;;;;;;;7.30;85.10;;;;;;5006629;28;19929;-43
2020/12/19 00:21:40;;;;;;;;;;;7.30;85.00;;;;;;5006231;28;20297;-43
2020/12/19 00:24:07;;;;;;;;;;;7.30;85.00;;;;;;5006622;28;20400;-45
2020/12/19 00:26:37;;;;;;;;;;;7.30;85.00;;;;;;5003503;28;19936;-44
2020/12/19 00:29:04;;;;;;;;;;;7.30;84.90;;;;;;5007456;28;19929;-45
2020/12/19 00:31:30;;;;;;;;;;;7.30;84.80;;;;;;5005422;28;19929;-44
2020/12/19 00:33:56;;;;;;;;;;;7.30;84.90;;;;;;5005661;28;19935;-44
2020/12/19 00:36:23;;;;;;;;;;;7.30;84.90;;;;;;5002875;28;19939;-44
2020/12/19 00:38:51;;;;;;;;;;;7.30;84.70;;;;;;5007643;28;19924;-43
2020/12/19 00:41:24;;;;;;;;;;;7.30;84.60;;;;;;5005043;28;20480;-44
2020/12/19 00:43:50;;;;;;;;;;;7.30;84.50;;;;;;5007581;28;19933;-44
2020/12/19 00:46:18;;;;;;;;;;;7.30;84.70;;;;;;5004022;28;20009;-44
2020/12/19 00:48:44;;;;;;;;;;;7.30;84.80;;;;;;5007012;28;19932;-45
2020/12/19 00:51:12;;;;;;;;;;;7.30;84.70;;;;;;5007334;28;19933;-44
2020/12/19 00:53:38;;;;;;;;;;;7.30;84.70;;;;;;5019162;28;19931;-44
2020/12/19 00:56:15;;;;;;;;;;;7.30;84.80;;;;;;5006360;28;19940;-44
2020/12/19 00:58:43;;;;;;;;;;;7.30;84.80;;;;;;5005662;28;19936;-44
2020/12/19 01:01:09;;;;;;;;;;;7.30;84.90;;;;;;5007422;28;19932;-43
2020/12/19 01:03:35;;;;;;;;;;;7.30;84.90;;;;;;5006810;28;19933;-44
2020/12/19 01:06:01;;;;;;;;;;;7.30;84.80;;;;;;5007176;28;19930;-44
2020/12/19 01:08:27;;;;;;;;;;;7.30;84.90;;;;;;5005076;28;19933;-43
2020/12/19 01:10:53;;;;;;;;;;;7.30;84.90;;;;;;5003921;28;19925;-44
2020/12/19 01:13:19;;;;;;;;;;;7.30;84.80;;;;;;5007367;28;19945;-43
2020/12/19 01:15:46;;;;;;;;;;;7.30;84.90;;;;;;5013996;28;19929;-44
2020/12/19 01:18:13;;;;;;;;;;;7.30;84.90;;;;;;5008902;28;19933;-44
2020/12/19 01:20:39;;;;;;;;;;;7.30;84.80;;;;;;5010029;28;19925;-44
2020/12/19 01:23:05;;;;;;;;;;;7.30;84.90;;;;;;5009632;28;19925;-44
2020/12/19 01:25:31;;;;;;;;;;;7.30;84.90;;;;;;5010623;28;19929;-44
2020/12/19 01:27:58;;;;;;;;;;;7.30;84.90;;;;;;5009807;28;19933;-44
2020/12/19 01:30:24;;;;;;;;;;;7.20;85.00;;;;;;5009631;28;19925;-44
2020/12/19 01:32:50;;;;;;;;;;;7.30;85.00;;;;;;5010775;28;20373;-44
2020/12/19 01:35:33;;;;;;;;;;;7.30;85.00;;;;;;5010268;28;19945;-44
2020/12/19 01:38:02;;;;;;;;;;;7.30;85.00;;;;;;5008949;28;20298;-44
2020/12/19 01:40:29;;;;;;;;;;;7.30;84.90;;;;;;5009859;28;19929;-45
2020/12/19 01:42:55;;;;;;;;;;;7.30;84.80;;;;;;5009498;28;19932;-45
2020/12/19 01:45:22;;;;;;;;;;;7.30;84.80;;;;;;5011282;28;19949;-45
2020/12/19 01:47:48;;;;;;;;;;;7.30;84.90;;;;;;5012669;28;19925;-44
2020/12/19 01:50:14;;;;;;;;;;;7.30;84.90;;;;;;5007473;28;19940;-45
2020/12/19 01:52:41;;;;;;;;;;;7.30;84.80;;;;;;5011057;28;20429;-42
2020/12/19 01:55:09;;;;;;;;;;;7.30;84.80;;;;;;5010786;28;19932;-44
2020/12/19 01:57:39;;;;;;;;;;;7.30;84.90;;;;;;5009325;28;19925;-45
2020/12/19 02:00:05;;;;;;;;;;;7.30;84.90;;;;;;5008634;28;19933;-44
2020/12/19 02:02:32;;;;;;;;;;;7.30;84.90;;;;;;5008887;28;19932;-45
2020/12/19 02:04:58;;;;;;;;;;;7.40;84.60;;;;;;5011783;28;20388;-43
2020/12/19 02:07:27;;;;;;;;;;;7.40;84.60;;;;;;5010069;28;19932;-45
2020/12/19 02:09:53;;;;;;;;;;;7.40;84.60;;;;;;5008986;28;19936;-43
2020/12/19 02:12:20;;;;;;;;;;;7.40;84.60;;;;;;5010149;28;19926;-45
2020/12/19 02:14:48;;;;;;;;;;;7.40;84.60;;;;;;5009551;28;19925;-42
2020/12/19 02:17:15;;;;;;;;;;;7.40;84.70;;;;;;5014231;28;19940;-41
2020/12/19 02:19:41;;;;;;;;;;;7.40;84.70;;;;;;5008135;28;19929;-44
2020/12/19 02:22:08;;;;;;;;;;;7.30;84.60;;;;;;5007897;28;19925;-43
2020/12/19 02:24:37;;;;;;;;;;;7.40;84.60;;;;;;5012602;28;19968;-45
2020/12/19 02:27:03;;;;;;;;;;;7.30;84.60;;;;;;5008692;28;20381;-45
2020/12/19 02:29:30;;;;;;;;;;;7.30;84.70;;;;;;5009762;28;19933;-44
2020/12/19 02:31:57;;;;;;;;;;;7.30;84.70;;;;;;5005419;28;20020;-45
2020/12/19 02:34:23;;;;;;;;;;;7.40;84.50;;;;;;5010831;28;19933;-44
2020/12/19 02:36:50;;;;;;;;;;;7.30;84.50;;;;;;5006341;28;19968;-44
2020/12/19 02:39:17;;;;;;;;;;;7.30;84.60;;;;;;5005501;28;19925;-45
2020/12/19 02:41:44;;;;;;;;;;;7.30;84.70;;;;;;5006159;28;19935;-45
2020/12/19 02:44:12;;;;;;;;;;;7.30;84.50;;;;;;5008818;28;19926;-44
2020/12/19 02:46:41;;;;;;;;;;;7.30;84.50;;;;;;5004538;28;20384;-44
2020/12/19 02:49:11;;;;;;;;;;;7.30;84.60;;;;;;5009737;28;20413;-44
2020/12/19 02:51:37;;;;;;;;;;;7.30;84.50;;;;;;5004848;28;19933;-45
2020/12/19 02:54:05;;;;;;;;;;;7.30;84.50;;;;;;4986676;28;19930;-44
2020/12/19 02:56:32;;;;;;;;;;;7.30;84.50;;;;;;5008107;28;19968;-45
2020/12/19 02:58:58;;;;;;;;;;;7.30;84.50;;;;;;5008277;28;19937;-44
2020/12/19 03:01:28;;;;;;;;;;;7.30;84.40;;;;;;5007061;28;20415;-44
2020/12/19 03:03:55;;;;;;;;;;;7.30;84.50;;;;;;5006764;28;19933;-44
2020/12/19 03:06:28;;;;;;;;;;;7.30;84.40;;;;;;5007796;28;19935;-44
2020/12/19 03:08:55;;;;;;;;;;;7.30;84.40;;;;;;5007430;28;19973;-43
2020/12/19 03:11:21;;;;;;;;;;;7.30;84.40;;;;;;5003897;28;19932;-44
2020/12/19 03:13:50;;;;;;;;;;;7.30;84.30;;;;;;5008060;28;19932;-45
2020/12/19 03:16:17;;;;;;;;;;;7.40;84.30;;;;;;5009283;28;19937;-43
2020/12/19 03:18:43;;;;;;;;;;;7.40;84.10;;;;;;5006996;28;20361;-43
2020/12/19 03:21:09;;;;;;;;;;;7.30;84.20;;;;;;5008145;28;19925;-43
2020/12/19 03:23:35;;;;;;;;;;;7.40;84.10;;;;;;5010504;28;19925;-43
2020/12/19 03:26:01;;;;;;;;;;;7.40;84.10;;;;;;5007593;28;20019;-42
2020/12/19 03:28:27;;;;;;;;;;;7.40;84.10;;;;;;5006914;28;19925;-42
2020/12/19 03:30:53;;;;;;;;;;;7.40;84.00;;;;;;5007255;28;19926;-44
2020/12/19 03:33:22;;;;;;;;;;;7.40;84.00;;;;;;5010496;28;20044;-44
2020/12/19 03:35:49;;;;;;;;;;;7.30;84.10;;;;;;5006457;28;19956;-44
2020/12/19 03:38:16;;;;;;;;;;;7.30;84.10;;;;;;5005446;28;19937;-44
2020/12/19 03:40:44;;;;;;;;;;;7.40;84.10;;;;;;5005409;28;20300;-45
2020/12/19 03:43:11;;;;;;;;;;;7.40;84.00;;;;;;5008772;28;19935;-43
2020/12/19 03:45:37;;;;;;;;;;;7.40;84.00;;;;;;5006560;28;19925;-44
2020/12/19 03:48:03;;;;;;;;;;;7.40;84.00;;;;;;5007485;28;19980;-44
2020/12/19 03:50:29;;;;;;;;;;;7.40;83.90;;;;;;5015228;28;20284;-42
2020/12/19 03:52:56;;;;;;;;;;;7.40;83.90;;;;;;5010188;28;19929;-42
2020/12/19 03:55:22;;;;;;;;;;;7.40;83.90;;;;;;5019867;28;19935;-44
2020/12/19 03:57:49;;;;;;;;;;;7.40;83.80;;;;;;5006174;28;19936;-43
2020/12/19 04:00:15;;;;;;;;;;;7.40;83.90;;;;;;5004573;28;20289;-43
2020/12/19 04:02:42;;;;;;;;;;;7.40;83.90;;;;;;5007988;28;19931;-44
2020/12/19 04:05:13;;;;;;;;;;;7.40;83.90;;;;;;5007578;28;19936;-42
2020/12/19 04:07:39;;;;;;;;;;;7.40;83.90;;;;;;5003051;28;19929;-43
2020/12/19 04:10:06;;;;;;;;;;;7.40;83.80;;;;;;5006193;28;19952;-45
2020/12/19 04:12:32;;;;;;;;;;;7.30;83.90;;;;;;5007698;28;19925;-45
2020/12/19 04:14:58;;;;;;;;;;;7.30;84.10;;;;;;5005470;28;20365;-45
2020/12/19 04:17:25;;;;;;;;;;;7.30;83.80;;;;;;5005151;28;19937;-44
2020/12/19 04:19:58;;;;;;;;;;;7.30;83.80;;;;;;5009083;28;19931;-44
2020/12/19 04:22:24;;;;;;;;;;;7.30;83.80;;;;;;5005378;28;19929;-44
2020/12/19 04:24:50;;;;;;;;;;;7.30;83.80;;;;;;5006877;28;19968;-44
2020/12/19 04:27:17;;;;;;;;;;;7.30;83.70;;;;;;5007256;28;20022;-45
2020/12/19 04:29:43;;;;;;;;;;;7.30;83.80;;;;;;5004906;28;20308;-43
2020/12/19 04:32:09;;;;;;;;;;;7.30;83.80;;;;;;5004959;28;20436;-44
2020/12/19 04:34:35;;;;;;;;;;;7.30;83.90;;;;;;5004931;28;19931;-43
2020/12/19 04:37:17;;;;;;;;;;;7.30;83.90;;;;;;4999107;28;19936;-45
2020/12/19 04:39:44;;;;;;;;;;;7.30;83.80;;;;;;5005715;28;20285;-42
2020/12/19 04:42:10;;;;;;;;;;;7.30;83.60;;;;;;4990379;28;19929;-44
2020/12/19 04:44:36;;;;;;;;;;;7.30;83.70;;;;;;5008352;28;19932;-44
2020/12/19 04:47:02;;;;;;;;;;;7.30;83.70;;;;;;5005730;28;19925;-44
2020/12/19 04:49:28;;;;;;;;;;;7.30;83.70;;;;;;5004573;28;19941;-44
2020/12/19 04:51:57;;;;;;;;;;;7.30;83.80;;;;;;5005262;28;19956;-44
2020/12/19 04:54:23;;;;;;;;;;;7.30;83.70;;;;;;5008981;28;19925;-45
2020/12/19 04:56:52;;;;;;;;;;;7.30;83.60;;;;;;5003549;28;20255;-43
2020/12/19 04:59:19;;;;;;;;;;;7.30;83.60;;;;;;5007351;28;19976;-44
2020/12/19 05:01:45;;;;;;;;;;;7.20;83.60;;;;;;5002466;28;19932;-45
2020/12/19 05:04:14;;;;;;;;;;;7.20;83.70;;;;;;5008208;28;19925;-45
2020/12/19 05:06:41;;;;;;;;;;;7.20;83.70;;;;;;5007494;28;19929;-44
2020/12/19 05:09:07;;;;;;;;;;;7.20;83.80;;;;;;5005620;28;20293;-44
2020/12/19 05:11:35;;;;;;;;;;;7.20;83.70;;;;;;5004735;28;19925;-44
2020/12/19 05:14:05;;;;;;;;;;;7.20;83.70;;;;;;5007014;28;19925;-45
2020/12/19 05:16:32;;;;;;;;;;;7.20;83.80;;;;;;5007992;28;19929;-44
2020/12/19 05:19:06;;;;;;;;;;;7.20;83.80;;;;;;5004606;28;19929;-44
2020/12/19 05:21:43;;;;;;;;;;;7.20;83.80;;;;;;5002024;28;19929;-45
2020/12/19 05:24:15;;;;;;;;;;;7.20;83.80;;;;;;5021662;28;20370;-44
2020/12/19 05:26:42;;;;;;;;;;;7.20;83.70;;;;;;5006380;28;20269;-44
2020/12/19 05:29:08;;;;;;;;;;;7.20;83.70;;;;;;5002171;28;20039;-44
2020/12/19 05:31:35;;;;;;;;;;;7.20;83.70;;;;;;5005286;28;19983;-44
2020/12/19 05:34:03;;;;;;;;;;;7.20;83.70;;;;;;5007881;28;20032;-45
2020/12/19 05:36:29;;;;;;;;;;;7.20;83.60;;;;;;5005335;28;20377;-44
2020/12/19 05:39:03;;;;;;;;;;;7.20;83.60;;;;;;5005254;28;20972;-45
2020/12/19 05:41:29;;;;;;;;;;;7.20;83.50;;;;;;5003969;28;19930;-44
2020/12/19 05:43:55;;;;;;;;;;;7.20;83.50;;;;;;5004930;28;20370;-44
2020/12/19 05:46:27;;;;;;;;;;;7.20;83.50;;;;;;5005034;28;19925;-44
2020/12/19 05:48:54;;;;;;;;;;;7.20;83.50;;;;;;5005480;28;19937;-44
2020/12/19 05:51:20;;;;;;;;;;;7.20;83.40;;;;;;5004370;28;19937;-44
2020/12/19 05:53:50;;;;;;;;;;;7.20;83.40;;;;;;5005333;28;19932;-44
2020/12/19 05:56:18;;;;;;;;;;;7.20;83.40;;;;;;5002236;28;20369;-44
2020/12/19 05:58:45;;;;;;;;;;;7.20;83.40;;;;;;5007159;28;20706;-44
2020/12/19 06:01:14;;;;;;;;;;;7.10;83.50;;;;;;5003205;28;20018;-43
2020/12/19 06:03:42;;;;;;;;;;;7.10;83.40;;;;;;5008599;28;19932;-44
2020/12/19 06:06:12;;;;;;;;;;;7.10;83.50;;;;;;5008040;28;20295;-44
2020/12/19 06:08:38;;;;;;;;;;;7.10;83.60;;;;;;5010057;28;19933;-45
2020/12/19 06:11:09;;;;;;;;;;;7.10;83.50;;;;;;5004776;28;20001;-44
2020/12/19 06:13:37;;;;;;;;;;;7.10;83.50;;;;;;5009547;28;19933;-43
2020/12/19 06:16:09;;;;;;;;;;;7.10;83.40;;;;;;5008059;28;20016;-44
2020/12/19 06:18:48;;;;;;;;;;;7.10;83.30;;;;;;5008061;28;20408;-45
2020/12/19 06:21:15;;;;;;;;;;;7.10;83.30;;;;;;5006104;28;19937;-45
2020/12/19 06:23:41;;;;;;;;;;;7.10;83.30;;;;;;5007146;28;19939;-44
2020/12/19 06:26:07;;;;;;;;;;;7.10;83.10;;;;;;5009032;28;19926;-44
2020/12/19 06:28:43;;;;;;;;;;;7.10;83.00;;;;;;5008343;28;19952;-44
2020/12/19 06:31:16;;;;;;;;;;;7.00;82.90;;;;;;5010986;28;19929;-44
2020/12/19 06:33:46;;;;;;;;;;;7.00;82.80;;;;;;5008457;28;19932;-44
2020/12/19 06:36:18;;;;;;;;;;;7.00;82.70;;;;;;5009110;28;19925;-44
2020/12/19 06:38:52;;;;;;;;;;;6.90;82.60;;;;;;5010739;28;19925;-43
2020/12/19 06:41:37;;;;;;;;;;;6.90;82.50;;;;;;5007628;28;19932;-44
2020/12/19 06:44:07;;;;;;;;;;;6.90;82.40;;;;;;5010047;28;19948;-44
2020/12/19 06:46:33;;;;;;;;;;;6.90;82.40;;;;;;5006459;28;19929;-44
2020/12/19 06:49:00;;;;;;;;;;;6.80;82.20;;;;;;5005780;28;20370;-44
2020/12/19 06:51:27;;;;;;;;;;;6.80;82.20;;;;;;5005840;28;20373;-44
2020/12/19 06:53:56;;;;;;;;;;;6.70;82.10;;;;;;5009979;28;19936;-44
2020/12/19 06:56:25;;;;;;;;;;;6.70;82.20;;;;;;5025367;28;19941;-44
2020/12/19 06:58:59;;;;;;;;;;;6.70;82.10;;;;;;5007459;28;19932;-44
2020/12/19 07:01:25;;;;;;;;;;;6.70;82.20;;;;;;5007619;28;19929;-44
2020/12/19 07:03:52;;;;;;;;;;;6.60;82.20;;;;;;5008395;28;19940;-44
2020/12/19 07:06:18;;;;;;;;;;;6.60;82.10;;;;;;5008025;28;19925;-44
2020/12/19 07:08:50;;;;;;;;;;;6.60;82.20;;;;;;5009350;28;19939;-45
2020/12/19 07:11:25;;;;;;;;;;;6.60;82.10;;;;;;5007958;28;20110;-44
2020/12/19 07:13:54;;;;;;;;;;;6.50;82.20;;;;;;5008632;28;19984;-44
2020/12/19 07:16:39;;;;;;;;;;;6.50;82.10;;;;;;5008285;28;19925;-44
2020/12/19 07:19:20;;;;;;;;;;;6.50;82.10;;;;;;5009358;28;19925;-44
2020/12/19 07:21:49;;;;;;;;;;;6.50;82.10;;;;;;5007377;28;19929;-45
2020/12/19 07:24:15;;;;;;;;;;;6.50;82.20;;;;;;5008427;28;19925;-44
2020/12/19 07:26:42;;;;;;;;;;;6.50;82.40;;;;;;5007465;28;19925;-43
2020/12/19 07:29:14;;;;;;;;;;;6.50;82.60;;;;;;5009828;28;20292;-44
2020/12/19 07:31:44;;;;;;;;;;;6.40;82.90;;;;;;5001617;28;20374;-43
2020/12/19 07:34:11;;;;;;;;;;;6.40;83.10;;;;;;5008825;28;19932;-44
2020/12/19 07:36:38;;;;;;;;;;;6.50;83.30;;;;;;5010225;28;19925;-44
2020/12/19 07:39:07;;;;;;;;;;;6.50;83.50;;;;;;5008882;28;20377;-44
2020/12/19 07:41:34;;;;;;;;;;;6.50;83.60;;;;;;5008626;28;19925;-43
2020/12/19 07:44:12;;;;;;;;;;;6.50;83.60;;;;;;5004660;28;20445;-44
2020/12/19 07:46:59;;;;;;;;;;;6.50;83.80;;;;;;5004445;28;19940;-44
2020/12/19 07:49:45;;;;;;;;;;;6.50;83.80;;;;;;5005927;28;19926;-44
2020/12/19 07:52:15;;;;;;;;;;;6.50;83.70;;;;;;5006760;28;19925;-43
2020/12/19 07:54:51;;;;;;;;;;;6.50;83.90;;;;;;5007906;28;19935;-45
2020/12/19 07:57:17;;;;;;;;;;;6.50;83.90;;;;;;5008245;28;19983;-45
2020/12/19 07:59:43;;;;;;;;;;;6.50;84.00;;;;;;5006667;28;19945;-45
2020/12/19 08:02:11;;;;;;;;;;;6.50;84.00;;;;;;5005278;28;20279;-45
2020/12/19 08:04:37;;;;;;;;;;;6.50;84.00;;;;;;5007167;28;19932;-44
2020/12/19 08:07:05;;;;;;;;;;;6.50;84.00;;;;;;5006340;28;19952;-45
2020/12/19 08:09:38;;;;;;;;;;;6.50;84.00;;;;;;5006981;28;20495;-45
2020/12/19 08:12:05;;;;;;;;;;;6.60;84.10;;;;;;5008199;28;19929;-45
2020/12/19 08:14:33;;;;;;;;;;;6.60;84.20;;;;;;5007812;28;19925;-44
2020/12/19 08:17:00;;;;;;;;;;;6.60;84.20;;;;;;5004160;28;19932;-44
2020/12/19 08:19:38;;;;;;;;;;;6.60;84.20;;;;;;5007218;28;19925;-44
2020/12/19 08:22:05;;;;;;;;;;;6.60;84.30;;;;;;5006804;28;20282;-44
2020/12/19 08:24:31;;;;;;;;;;;6.60;84.20;;;;;;5006985;28;19960;-43
2020/12/19 08:27:16;;;;;;;;;;;6.60;84.30;;;;;;5004427;28;19929;-44
2020/12/19 08:29:43;;;;;;;;;;;6.60;84.30;;;;;;5006755;28;19929;-45
2020/12/19 08:32:09;;;;;;;;;;;6.70;84.30;;;;;;5006108;28;20457;-45
2020/12/19 08:34:36;;;;;;;;;;;6.70;84.30;;;;;;5001478;28;19937;-45
2020/12/19 08:37:03;;;;;;;;;;;6.70;84.30;;;;;;5009326;28;19936;-44
2020/12/19 08:40:00;;;;;;;;;;;6.70;84.20;;;;;;5005993;28;19926;-46
2020/12/19 08:42:30;;;;;;;;;;;6.60;84.10;;;;;;5006504;28;19925;-47
2020/12/19 08:45:16;;;;;;;;;;;6.70;84.20;;;;;;5006987;28;19925;-47
2020/12/19 08:47:43;;;;;;;;;;;6.70;84.30;;;;;;5007034;28;19933;-48
2020/12/19 08:50:09;;;;;;;;;;;6.70;84.10;;;;;;5004472;28;19932;-47
2020/12/19 08:52:36;;;;;;;;;;;6.70;84.10;;;;;;5005027;28;19932;-44
2020/12/19 08:55:02;;;;;;;;;;;6.70;84.20;;;;;;4995774;28;19932;-47
2020/12/19 08:57:30;;;;;;;;;;;6.70;84.20;;;;;;5003517;28;19929;-47
2020/12/19 09:00:09;;;;;;;;;;;6.70;84.20;;;;;;5002681;28;26491;-45
2020/12/19 09:02:38;;;;;;;;;;;6.80;84.20;;;;;;5004780;28;19925;-44
2020/12/19 09:05:05;;;;;;;;;;;6.80;84.10;;;;;;5005861;28;19936;-46
2020/12/19 09:07:32;;;;;;;;;;;6.80;84.10;;;;;;5007190;28;19936;-44
2020/12/19 09:10:22;;;;;;;;;;;6.80;84.10;;;;;;5003571;28;19973;-45
2020/12/19 09:13:05;;;;;;;;;;;6.90;84.10;;;;;;5021883;28;19926;-43
2020/12/19 09:15:31;;;;;;;;;;;6.90;84.10;;;;;;5006503;28;19925;-46
2020/12/19 09:17:57;;;;;;;;;;;6.90;84.20;;;;;;5004049;28;19972;-43
2020/12/19 09:20:25;;;;;;;;;;;7.00;84.20;;;;;;5005636;28;20297;-44
2020/12/19 09:22:51;;;;;;;;;;;7.00;84.20;;;;;;5006370;28;19933;-43
2020/12/19 09:25:18;;;;;;;;;;;7.10;83.90;;;;;;5006659;28;19940;-46
2020/12/19 09:27:44;;;;;;;;;;;7.00;83.90;;;;;;5004777;28;20016;-47
2020/12/19 09:30:11;;;;;;;;;;;7.10;83.70;;;;;;5005001;28;19988;-45
2020/12/19 09:32:37;;;;;;;;;;;7.10;83.60;;;;;;5005973;28;19956;-47
2020/12/19 09:35:03;;;;;;;;;;;7.10;83.40;;;;;;5004274;28;19932;-47
2020/12/19 09:37:30;;;;;;;;;;;7.10;83.30;;;;;;5010203;28;19933;-42
2020/12/19 09:39:56;;;;;;;;;;;7.10;83.20;;;;;;5008737;28;19937;-47
2020/12/19 09:42:22;;;;;;;;;;;7.10;83.20;;;;;;5008222;28;19926;-45
2020/12/19 09:44:48;;;;;;;;;;;7.10;83.30;;;;;;5009107;28;19925;-44
2020/12/19 09:47:15;;;;;;;;;;;7.10;83.40;;;;;;5007577;28;20012;-46
2020/12/19 09:49:42;;;;;;;;;;;7.10;83.20;;;;;;5008470;28;19929;-46
2020/12/19 09:52:08;;;;;;;;;;;7.10;83.20;;;;;;5010040;28;19939;-45
2020/12/19 09:54:35;;;;;;;;;;;7.10;83.20;;;;;;5009935;28;20360;-45
2020/12/19 09:57:01;;;;;;;;;;;7.10;83.00;;;;;;5010918;28;19932;-45
2020/12/19 09:59:28;;;;;;;;;;;7.10;83.00;;;;;;5010571;28;19936;-45
2020/12/19 10:01:54;;;;;;;;;;;7.20;82.90;;;;;;5007843;28;20297;-45
2020/12/19 10:04:21;;;;;;;;;;;7.10;82.60;;;;;;5009780;28;19940;-45
2020/12/19 10:06:50;;;;;;;;;;;7.10;82.80;;;;;;5007944;28;19925;-45
2020/12/19 10:09:17;;;;;;;;;;;7.10;82.80;;;;;;5008681;28;19925;-45
2020/12/19 10:11:43;;;;;;;;;;;7.10;82.80;;;;;;5008022;28;20085;-45
2020/12/19 10:14:09;;;;;;;;;;;7.10;82.80;;;;;;5013372;28;19935;-43
2020/12/19 10:16:36;;;;;;;;;;;7.20;83.00;;;;;;5005629;28;19933;-44
2020/12/19 10:19:02;;;;;;;;;;;7.20;82.90;;;;;;5005889;28;20293;-45
2020/12/19 10:21:28;;;;;;;;;;;7.20;82.60;;;;;;5006581;28;19925;-45
2020/12/19 10:23:56;;;;;;;;;;;7.30;82.50;;;;;;5008423;28;19933;-45
2020/12/19 10:26:22;;;;;;;;;;;7.30;82.40;;;;;;5007242;28;19925;-43
2020/12/19 10:28:49;;;;;;;;;;;7.30;82.30;;;;;;5006604;28;19960;-43
2020/12/19 10:31:20;;;;;;;;;;;7.30;82.30;;;;;;5005969;28;19925;-44
2020/12/19 10:33:48;;;;;;;;;;;7.30;82.40;;;;;;5013888;28;19938;-43
2020/12/19 10:36:14;;;;;;;;;;;7.40;82.50;;;;;;5006406;28;20392;-45
2020/12/19 10:38:43;;;;;;;;;;;7.40;82.40;;;;;;5006265;28;19929;-44
2020/12/19 10:41:13;;;;;;;;;;;7.40;82.40;;;;;;5006682;28;19933;-44
2020/12/19 10:43:40;;;;;;;;;;;7.40;82.40;;;;;;5007836;28;19925;-45
2020/12/19 10:46:06;;;;;;;;;;;7.50;82.40;;;;;;5007091;28;20014;-43
2020/12/19 10:48:32;;;;;;;;;;;7.50;82.40;;;;;;5006317;28;19937;-42
2020/12/19 10:50:58;;;;;;;;;;;7.50;82.40;;;;;;5007695;28;19928;-45
2020/12/19 10:53:25;;;;;;;;;;;7.50;82.30;;;;;;5011830;28;19925;-44
2020/12/19 10:55:51;;;;;;;;;;;7.50;82.20;;;;;;5007630;28;19951;-43
2020/12/19 10:58:18;;;;;;;;;;;7.60;82.30;;;;;;5007547;28;20329;-45
2020/12/19 11:00:46;;;;;;;;;;;7.60;82.10;;;;;;5005991;28;19979;-45
2020/12/19 11:03:12;;;;;;;;;;;7.70;82.10;;;;;;5008553;28;19975;-45
2020/12/19 11:05:39;;;;;;;;;;;7.70;82.10;;;;;;5009696;28;20021;-43
2020/12/19 11:08:06;;;;;;;;;;;7.70;82.00;;;;;;5008061;28;19933;-45
2020/12/19 11:10:32;;;;;;;;;;;7.80;81.90;;;;;;5016769;28;19940;-44
2020/12/19 11:13:03;;;;;;;;;;;7.80;81.50;;;;;;5007877;28;19926;-44
2020/12/19 11:15:32;;;;;;;;;;;7.80;81.40;;;;;;5006969;28;19929;-43
2020/12/19 11:17:58;;;;;;;;;;;7.90;80.70;;;;;;5005923;28;19932;-43
2020/12/19 11:20:26;;;;;;;;;;;7.90;80.50;;;;;;5004905;28;19952;-43
2020/12/19 11:22:52;;;;;;;;;;;7.90;80.50;;;;;;5005517;28;19944;-44
2020/12/19 11:25:18;;;;;;;;;;;7.90;80.40;;;;;;5007742;28;19933;-45
2020/12/19 11:27:44;;;;;;;;;;;7.90;80.40;;;;;;5007320;28;19933;-45
2020/12/19 11:30:11;;;;;;;;;;;7.90;80.50;;;;;;5004227;28;20407;-45
2020/12/19 11:32:40;;;;;;;;;;;7.90;80.40;;;;;;5009719;28;19925;-44
2020/12/19 11:35:08;;;;;;;;;;;7.90;80.50;;;;;;5006264;28;20291;-45
2020/12/19 11:37:34;;;;;;;;;;;8.00;80.30;;;;;;5004086;28;20353;-43
2020/12/19 11:40:02;;;;;;;;;;;8.00;80.00;;;;;;5007721;28;19933;-47
2020/12/19 11:42:28;;;;;;;;;;;8.00;79.80;;;;;;5005027;28;19933;-45
2020/12/19 11:44:55;;;;;;;;;;;8.10;79.90;;;;;;5007273;28;20341;-46
2020/12/19 11:47:21;;;;;;;;;;;8.00;79.90;;;;;;5005087;28;20005;-46
2020/12/19 11:49:50;;;;;;;;;;;8.00;80.00;;;;;;5006469;28;19957;-45
2020/12/19 11:52:16;;;;;;;;;;;8.10;80.00;;;;;;5006341;28;20381;-46
2020/12/19 11:54:42;;;;;;;;;;;8.10;80.00;;;;;;5006207;28;19929;-46
2020/12/19 11:57:12;;;;;;;;;;;8.10;80.00;;;;;;5003194;28;20393;-44
2020/12/19 11:59:40;;;;;;;;;;;8.00;79.90;;;;;;5007164;28;19926;-45
2020/12/19 12:02:07;;;;;;;;;;;8.00;79.70;;;;;;5002801;28;20290;-46
2020/12/19 12:04:33;;;;;;;;;;;8.00;79.80;;;;;;5006586;28;19933;-45
2020/12/19 12:07:00;;;;;;;;;;;8.00;79.70;;;;;;5004179;28;19930;-46
2020/12/19 12:09:26;;;;;;;;;;;8.10;79.50;;;;;;5007345;28;20245;-46
2020/12/19 12:11:53;;;;;;;;;;;8.10;79.60;;;;;;5000799;28;19935;-46
2020/12/19 12:14:19;;;;;;;;;;;8.10;79.80;;;;;;5007815;28;19930;-46
2020/12/19 12:16:48;;;;;;;;;;;8.10;79.70;;;;;;5021846;28;20439;-46
2020/12/19 12:19:14;;;;;;;;;;;8.10;79.70;;;;;;5006091;28;19929;-45
2020/12/19 12:21:41;;;;;;;;;;;8.10;79.70;;;;;;5005977;28;19929;-44
2020/12/19 12:24:08;;;;;;;;;;;8.10;79.80;;;;;;5008926;28;26656;-46
2020/12/19 12:26:34;;;;;;;;;;;8.10;79.70;;;;;;4989472;28;20301;-44
2020/12/19 12:29:04;;;;;;;;;;;8.10;79.80;;;;;;5007597;28;20275;-44
2020/12/19 12:31:35;;;;;;;;;;;8.10;79.90;;;;;;5008184;28;19932;-45
2020/12/19 12:34:02;;;;;;;;;;;8.10;79.80;;;;;;5005606;28;19929;-43
2020/12/19 12:36:29;;;;;;;;;;;8.10;79.80;;;;;;5006294;28;19936;-44
2020/12/19 12:38:57;;;;;;;;;;;8.20;79.80;;;;;;5006731;28;19929;-43
2020/12/19 12:41:24;;;;;;;;;;;8.20;79.90;;;;;;5007478;28;20004;-44
2020/12/19 12:43:51;;;;;;;;;;;8.20;79.80;;;;;;5015114;28;19933;-43
2020/12/19 12:46:19;;;;;;;;;;;8.20;79.70;;;;;;5003265;28;19933;-44
2020/12/19 12:48:46;;;;;;;;;;;8.20;79.90;;;;;;5004933;28;19934;-44
2020/12/19 12:51:14;;;;;;;;;;;8.20;80.00;;;;;;5006636;28;20483;-44
2020/12/19 12:53:46;;;;;;;;;;;8.20;80.00;;;;;;5005256;28;19930;-44
2020/12/19 12:56:13;;;;;;;;;;;8.20;79.90;;;;;;5006904;28;19925;-46
2020/12/19 12:58:40;;;;;;;;;;;8.20;80.00;;;;;;5004209;28;20404;-44
2020/12/19 13:01:09;;;;;;;;;;;8.20;80.00;;;;;;5005931;28;19925;-47
2020/12/19 13:03:35;;;;;;;;;;;8.20;79.90;;;;;;5004455;28;19929;-47
2020/12/19 13:06:01;;;;;;;;;;;8.30;80.10;;;;;;5005666;28;20914;-45
2020/12/19 13:08:33;;;;;;;;;;;8.30;80.30;;;;;;5004967;28;19956;-47
2020/12/19 13:10:59;;;;;;;;;;;8.30;80.30;;;;;;5005899;28;19929;-44
2020/12/19 13:13:26;;;;;;;;;;;8.40;80.30;;;;;;5007465;28;19925;-44
2020/12/19 13:15:53;;;;;;;;;;;8.40;80.40;;;;;;5011111;28;20379;-45
2020/12/19 13:18:19;;;;;;;;;;;8.40;80.10;;;;;;5008170;28;19976;-44
2020/12/19 13:20:45;;;;;;;;;;;8.50;80.20;;;;;;5009676;28;20575;-44
2020/12/19 13:23:11;;;;;;;;;;;8.50;80.30;;;;;;5009754;28;19929;-43
2020/12/19 13:25:37;;;;;;;;;;;8.60;80.30;;;;;;5011807;28;20499;-46
2020/12/19 13:28:04;;;;;;;;;;;8.60;80.10;;;;;;5007908;28;19925;-46
2020/12/19 13:30:30;;;;;;;;;;;8.70;79.80;;;;;;5008585;28;20289;-46
2020/12/19 13:32:58;;;;;;;;;;;8.70;79.90;;;;;;5009107;28;19972;-44
2020/12/19 13:35:24;;;;;;;;;;;8.80;79.70;;;;;;5011703;28;19925;-45
2020/12/19 13:37:54;;;;;;;;;;;8.80;79.50;;;;;;5005141;28;21444;-45
2020/12/19 13:40:21;;;;;;;;;;;8.80;79.60;;;;;;5009232;28;19972;-46
2020/12/19 13:42:47;;;;;;;;;;;8.90;79.70;;;;;;5007137;28;19925;-46
2020/12/19 13:45:14;;;;;;;;;;;8.90;79.60;;;;;;5010808;28;19925;-45
2020/12/19 13:47:41;;;;;;;;;;;8.90;79.40;;;;;;5009090;28;20428;-46
2020/12/19 13:50:08;;;;;;;;;;;8.90;79.30;;;;;;5010122;28;19933;-44
2020/12/19 13:52:36;;;;;;;;;;;8.90;79.40;;;;;;5006209;28;19925;-46
2020/12/19 13:55:04;;;;;;;;;;;8.90;79.50;;;;;;5010243;28;19989;-46
2020/12/19 13:57:30;;;;;;;;;;;8.90;79.40;;;;;;5011249;28;19933;-44
2020/12/19 13:59:56;;;;;;;;;;;8.90;79.50;;;;;;5008537;28;20017;-46
2020/12/19 14:02:22;;;;;;;;;;;8.90;79.50;;;;;;5008839;28;19925;-44
2020/12/19 14:04:49;;;;;;;;;;;8.90;79.50;;;;;;5012977;28;19935;-44
2020/12/19 14:07:15;;;;;;;;;;;8.90;79.60;;;;;;5010112;28;20395;-45
2020/12/19 14:09:41;;;;;;;;;;;8.90;79.70;;;;;;5024751;28;19961;-46
2020/12/19 14:12:07;;;;;;;;;;;8.90;79.80;;;;;;5009632;28;19929;-44
2020/12/19 14:14:33;;;;;;;;;;;8.80;79.90;;;;;;5010225;28;20000;-42
2020/12/19 14:17:03;;;;;;;;;;;8.90;79.90;;;;;;5010124;28;20296;-45
2020/12/19 14:19:29;;;;;;;;;;;8.90;79.80;;;;;;5011019;28;19933;-43
2020/12/19 14:21:55;;;;;;;;;;;8.90;80.00;;;;;;5008887;28;19930;-42
2020/12/19 14:24:23;;;;;;;;;;;8.90;80.00;;;;;;5010286;28;19932;-44
2020/12/19 14:26:49;;;;;;;;;;;8.90;80.00;;;;;;5007502;28;19929;-43
2020/12/19 14:29:15;;;;;;;;;;;8.90;80.20;;;;;;5007618;28;19925;-44
2020/12/19 14:31:41;;;;;;;;;;;8.90;80.20;;;;;;5009540;28;20285;-45
2020/12/19 14:34:08;;;;;;;;;;;8.90;80.30;;;;;;5006840;28;20012;-44
2020/12/19 14:36:52;;;;;;;;;;;8.90;80.40;;;;;;5009086;28;19941;-44